sensor_id;sensor_type;location;lat;lon;timestamp;pressure;altitude;pressure_sealevel;temperature;humidity
74936;BME280;63501;55.570;37.488;2023-06-10T00:00:11;99357.59;;;13.00;47.90
74936;BME280;63501;55.570;37.488;2023-06-10T00:02:40;99356.88;;;12.92;48.12
74936;BME280;63501;55.570;37.488;2023-06-10T00:05:08;99360.91;;;12.84;48.51
74936;BME280;63501;55.570;37.488;2023-06-10T00:07:36;99352.66;;;12.77;48.53
74936;BME280;63501;55.570;37.488;2023-06-10T00:10:05;99352.72;;;12.69;49.12
74936;BME280;63501;55.570;37.488;2023-06-10T00:12:32;99364.22;;;12.64;48.96
74936;BME280;63501;55.570;37.488;2023-06-10T00:15:03;99365.09;;;12.58;49.25
74936;BME280;63501;55.570;37.488;2023-06-10T00:17:32;99360.34;;;12.51;49.20
74936;BME280;63501;55.570;37.488;2023-06-10T00:20:00;99371.84;;;12.50;49.57
74936;BME280;63501;55.570;37.488;2023-06-10T00:22:30;99367.13;;;12.47;49.92
74936;BME280;63501;55.570;37.488;2023-06-10T00:24:58;99376.25;;;12.47;50.48
74936;BME280;63501;55.570;37.488;2023-06-10T00:27:26;99380.22;;;12.46;50.40
74936;BME280;63501;55.570;37.488;2023-06-10T00:30:01;99379.81;;;12.48;50.70
74936;BME280;63501;55.570;37.488;2023-06-10T00:32:35;99386.50;;;12.50;50.82
74936;BME280;63501;55.570;37.488;2023-06-10T00:35:03;99396.00;;;12.53;50.77
74936;BME280;63501;55.570;37.488;2023-06-10T00:37:30;99398.38;;;12.51;50.64
74936;BME280;63501;55.570;37.488;2023-06-10T00:39:57;99397.63;;;12.47;50.24
74936;BME280;63501;55.570;37.488;2023-06-10T00:42:25;99400.78;;;12.45;50.90
74936;BME280;63501;55.570;37.488;2023-06-10T00:44:52;99403.97;;;12.43;51.05
74936;BME280;63501;55.570;37.488;2023-06-10T00:47:20;99407.94;;;12.42;51.40
74936;BME280;63501;55.570;37.488;2023-06-10T00:49:49;99414.28;;;12.43;51.28
74936;BME280;63501;55.570;37.488;2023-06-10T00:52:18;99429.34;;;12.42;51.58
74936;BME280;63501;55.570;37.488;2023-06-10T00:54:46;99423.81;;;12.38;51.51
74936;BME280;63501;55.570;37.488;2023-06-10T00:57:14;99422.22;;;12.37;51.31
74936;BME280;63501;55.570;37.488;2023-06-10T00:59:44;99426.59;;;12.38;51.55
74936;BME280;63501;55.570;37.488;2023-06-10T01:02:14;99430.97;;;12.36;51.43
74936;BME280;63501;55.570;37.488;2023-06-10T01:04:41;99431.34;;;12.34;51.48
74936;BME280;63501;55.570;37.488;2023-06-10T01:07:23;99437.72;;;12.35;51.62
74936;BME280;63501;55.570;37.488;2023-06-10T01:09:54;99439.66;;;12.34;51.11
74936;BME280;63501;55.570;37.488;2023-06-10T01:12:30;99438.88;;;12.34;51.09
74936;BME280;63501;55.570;37.488;2023-06-10T01:14:58;99441.28;;;12.32;51.52
74936;BME280;63501;55.570;37.488;2023-06-10T01:17:28;99440.91;;;12.26;51.45
74936;BME280;63501;55.570;37.488;2023-06-10T01:19:56;99447.66;;;12.25;51.88
74936;BME280;63501;55.570;37.488;2023-06-10T01:22:26;99440.13;;;12.26;51.97
74936;BME280;63501;55.570;37.488;2023-06-10T01:24:55;99448.84;;;12.24;51.91
74936;BME280;63501;55.570;37.488;2023-06-10T01:27:26;99437.34;;;12.22;51.46
74936;BME280;63501;55.570;37.488;2023-06-10T01:29:59;99451.63;;;12.21;51.29
74936;BME280;63501;55.570;37.488;2023-06-10T01:32:34;99448.47;;;12.18;51.75
74936;BME280;63501;55.570;37.488;2023-06-10T01:35:05;99453.59;;;12.16;52.30
74936;BME280;63501;55.570;37.488;2023-06-10T01:37:37;99449.25;;;12.15;51.75
74936;BME280;63501;55.570;37.488;2023-06-10T01:40:06;99446.50;;;12.15;51.91
74936;BME280;63501;55.570;37.488;2023-06-10T01:42:34;99452.84;;;12.12;52.20
74936;BME280;63501;55.570;37.488;2023-06-10T01:45:01;99454.84;;;12.08;52.33
74936;BME280;63501;55.570;37.488;2023-06-10T01:47:31;99468.69;;;12.05;52.53
74936;BME280;63501;55.570;37.488;2023-06-10T01:49:58;99467.53;;;12.02;52.52
74936;BME280;63501;55.570;37.488;2023-06-10T01:52:26;99458.03;;;11.93;52.71
74936;BME280;63501;55.570;37.488;2023-06-10T01:54:55;99464.78;;;11.88;52.80
74936;BME280;63501;55.570;37.488;2023-06-10T01:57:22;99470.72;;;11.90;52.86
74936;BME280;63501;55.570;37.488;2023-06-10T01:59:49;99461.97;;;11.95;52.67
74936;BME280;63501;55.570;37.488;2023-06-10T02:02:16;99472.66;;;12.00;53.10
74936;BME280;63501;55.570;37.488;2023-06-10T02:04:43;99475.47;;;11.97;53.29
74936;BME280;63501;55.570;37.488;2023-06-10T02:07:10;99476.28;;;11.90;53.28
74936;BME280;63501;55.570;37.488;2023-06-10T02:09:38;99485.38;;;11.83;53.67
74936;BME280;63501;55.570;37.488;2023-06-10T02:12:07;99484.56;;;11.76;53.89
74936;BME280;63501;55.570;37.488;2023-06-10T02:14:36;99481.78;;;11.72;54.43
74936;BME280;63501;55.570;37.488;2023-06-10T02:17:03;99486.97;;;11.74;54.19
74936;BME280;63501;55.570;37.488;2023-06-10T02:19:31;99482.22;;;11.74;54.18
74936;BME280;63501;55.570;37.488;2023-06-10T02:21:58;99490.50;;;11.78;54.54
74936;BME280;63501;55.570;37.488;2023-06-10T02:24:25;99484.16;;;11.77;54.66
74936;BME280;63501;55.570;37.488;2023-06-10T02:26:52;99477.03;;;11.76;54.80
74936;BME280;63501;55.570;37.488;2023-06-10T02:29:23;99484.97;;;11.74;54.62
74936;BME280;63501;55.570;37.488;2023-06-10T02:31:51;99482.22;;;11.74;54.59
74936;BME280;63501;55.570;37.488;2023-06-10T02:34:19;99490.50;;;11.74;54.96
74936;BME280;63501;55.570;37.488;2023-06-10T02:36:47;99488.53;;;11.75;54.84
74936;BME280;63501;55.570;37.488;2023-06-10T02:39:16;99492.09;;;11.75;55.11
74936;BME280;63501;55.570;37.488;2023-06-10T02:41:43;99494.44;;;11.77;55.30
74936;BME280;63501;55.570;37.488;2023-06-10T02:44:11;99499.59;;;11.78;54.95
74936;BME280;63501;55.570;37.488;2023-06-10T02:46:39;99491.69;;;11.80;55.04
74936;BME280;63501;55.570;37.488;2023-06-10T02:49:06;99495.25;;;11.81;55.04
74936;BME280;63501;55.570;37.488;2023-06-10T02:51:35;99494.88;;;11.82;54.97
74936;BME280;63501;55.570;37.488;2023-06-10T02:54:02;99502.41;;;11.85;55.52
74936;BME280;63501;55.570;37.488;2023-06-10T02:56:31;99503.97;;;11.90;55.01
74936;BME280;63501;55.570;37.488;2023-06-10T02:59:00;99498.03;;;11.91;55.12
74936;BME280;63501;55.570;37.488;2023-06-10T03:01:28;99500.00;;;11.95;55.14
74936;BME280;63501;55.570;37.488;2023-06-10T03:03:59;99496.81;;;12.00;55.10
74936;BME280;63501;55.570;37.488;2023-06-10T03:06:26;99509.47;;;12.08;54.50
74936;BME280;63501;55.570;37.488;2023-06-10T03:08:55;99511.84;;;12.13;55.16
74936;BME280;63501;55.570;37.488;2023-06-10T03:11:22;99507.09;;;12.13;54.46
74936;BME280;63501;55.570;37.488;2023-06-10T03:13:51;99503.50;;;12.16;54.43
74936;BME280;63501;55.570;37.488;2023-06-10T03:16:20;99507.44;;;12.23;54.20
74936;BME280;63501;55.570;37.488;2023-06-10T03:18:50;99504.25;;;12.31;53.97
74936;BME280;63501;55.570;37.488;2023-06-10T03:21:18;99505.81;;;12.36;54.47
74936;BME280;63501;55.570;37.488;2023-06-10T03:23:46;99512.13;;;12.43;54.57
74936;BME280;63501;55.570;37.488;2023-06-10T03:26:13;99504.97;;;12.50;53.99
74936;BME280;63501;55.570;37.488;2023-06-10T03:28:41;99506.91;;;12.56;53.47
74936;BME280;63501;55.570;37.488;2023-06-10T03:31:11;99514.44;;;12.63;53.93
74936;BME280;63501;55.570;37.488;2023-06-10T03:33:38;99513.22;;;12.64;53.32
74936;BME280;63501;55.570;37.488;2023-06-10T03:36:06;99521.13;;;12.69;53.14
74936;BME280;63501;55.570;37.488;2023-06-10T03:38:35;99521.88;;;12.73;53.38
74936;BME280;63501;55.570;37.488;2023-06-10T03:41:02;99519.53;;;12.75;53.48
74936;BME280;63501;55.570;37.488;2023-06-10T03:43:29;99525.81;;;12.83;53.49
74936;BME280;63501;55.570;37.488;2023-06-10T03:45:56;99521.41;;;12.89;52.67
74936;BME280;63501;55.570;37.488;2023-06-10T03:48:24;99520.56;;;12.95;52.61
74936;BME280;63501;55.570;37.488;2023-06-10T03:50:51;99518.22;;;12.94;52.64
74936;BME280;63501;55.570;37.488;2023-06-10T03:53:18;99529.72;;;12.92;52.63
74936;BME280;63501;55.570;37.488;2023-06-10T03:55:48;99530.53;;;12.93;52.21
74936;BME280;63501;55.570;37.488;2023-06-10T03:58:15;99520.19;;;12.97;51.75
74936;BME280;63501;55.570;37.488;2023-06-10T04:00:43;99525.69;;;13.04;52.14
74936;BME280;63501;55.570;37.488;2023-06-10T04:03:11;99526.84;;;13.07;51.24
74936;BME280;63501;55.570;37.488;2023-06-10T04:05:40;99528.06;;;13.06;51.42
74936;BME280;63501;55.570;37.488;2023-06-10T04:08:08;99539.22;;;12.98;51.29
74936;BME280;63501;55.570;37.488;2023-06-10T04:10:37;99537.63;;;12.97;51.53
74936;BME280;63501;55.570;37.488;2023-06-10T04:13:07;99530.47;;;13.00;51.30
74936;BME280;63501;55.570;37.488;2023-06-10T04:15:35;99532.81;;;13.05;52.27
74936;BME280;63501;55.570;37.488;2023-06-10T04:18:04;99534.38;;;13.10;52.02
74936;BME280;63501;55.570;37.488;2023-06-10T04:20:31;99535.53;;;13.16;51.29
74936;BME280;63501;55.570;37.488;2023-06-10T04:23:00;99542.25;;;13.18;51.59
74936;BME280;63501;55.570;37.488;2023-06-10T04:25:27;99537.47;;;13.26;51.49
74936;BME280;63501;55.570;37.488;2023-06-10T04:27:54;99542.97;;;13.37;50.76
74936;BME280;63501;55.570;37.488;2023-06-10T04:30:23;99546.44;;;13.48;50.57
74936;BME280;63501;55.570;37.488;2023-06-10T04:32:51;99534.50;;;13.55;51.40
74936;BME280;63501;55.570;37.488;2023-06-10T04:35:19;99542.75;;;13.62;50.27
74936;BME280;63501;55.570;37.488;2023-06-10T04:37:46;99536.84;;;13.60;50.32
74936;BME280;63501;55.570;37.488;2023-06-10T04:40:13;99542.75;;;13.62;50.93
74936;BME280;63501;55.570;37.488;2023-06-10T04:42:41;99545.13;;;13.63;50.63
74936;BME280;63501;55.570;37.488;2023-06-10T04:45:10;99548.25;;;13.69;50.36
74936;BME280;63501;55.570;37.488;2023-06-10T04:47:39;99556.13;;;13.77;50.17
74936;BME280;63501;55.570;37.488;2023-06-10T04:50:07;99554.13;;;13.82;50.74
74936;BME280;63501;55.570;37.488;2023-06-10T04:52:35;99556.84;;;13.85;49.59
74936;BME280;63501;55.570;37.488;2023-06-10T04:55:02;99550.56;;;13.81;50.23
74936;BME280;63501;55.570;37.488;2023-06-10T04:57:30;99555.72;;;13.79;49.79
74936;BME280;63501;55.570;37.488;2023-06-10T04:59:59;99554.47;;;13.84;50.21
74936;BME280;63501;55.570;37.488;2023-06-10T05:02:26;99558.03;;;13.88;49.02
74936;BME280;63501;55.570;37.488;2023-06-10T05:04:55;99561.56;;;13.92;48.87
74936;BME280;63501;55.570;37.488;2023-06-10T05:07:23;99560.38;;;13.93;48.97
74936;BME280;63501;55.570;37.488;2023-06-10T05:09:50;99561.91;;;13.97;49.57
74936;BME280;63501;55.570;37.488;2023-06-10T05:12:19;99562.66;;;14.01;48.41
74936;BME280;63501;55.570;37.488;2023-06-10T05:14:47;99564.19;;;14.06;48.33
74936;BME280;63501;55.570;37.488;2023-06-10T05:17:14;99563.34;;;14.13;48.20
74936;BME280;63501;55.570;37.488;2023-06-10T05:19:42;99560.50;;;14.20;48.62
74936;BME280;63501;55.570;37.488;2023-06-10T05:22:11;99560.09;;;14.21;48.42
74936;BME280;63501;55.570;37.488;2023-06-10T05:24:39;99573.13;;;14.28;48.13
74936;BME280;63501;55.570;37.488;2023-06-10T05:27:09;99567.03;;;14.40;47.32
74936;BME280;63501;55.570;37.488;2023-06-10T05:29:37;99570.94;;;14.46;48.03
74936;BME280;63501;55.570;37.488;2023-06-10T05:32:05;99565.72;;;14.52;47.40
74936;BME280;63501;55.570;37.488;2023-06-10T05:34:33;99573.94;;;14.63;47.62
74936;BME280;63501;55.570;37.488;2023-06-10T05:37:00;99583.81;;;14.71;47.74
74936;BME280;63501;55.570;37.488;2023-06-10T05:39:29;99583.63;;;14.85;46.58
74936;BME280;63501;55.570;37.488;2023-06-10T05:41:58;99579.13;;;14.95;46.84
74936;BME280;63501;55.570;37.488;2023-06-10T05:44:28;99585.81;;;15.01;47.05
74936;BME280;63501;55.570;37.488;2023-06-10T05:46:55;99586.59;;;15.01;46.60
74936;BME280;63501;55.570;37.488;2023-06-10T05:49:22;99590.59;;;15.00;47.20
74936;BME280;63501;55.570;37.488;2023-06-10T05:51:50;99575.09;;;14.99;47.00
74936;BME280;63501;55.570;37.488;2023-06-10T05:54:18;99578.56;;;15.07;46.84
74936;BME280;63501;55.570;37.488;2023-06-10T05:56:47;99580.78;;;15.19;46.08
74936;BME280;63501;55.570;37.488;2023-06-10T05:59:16;99575.94;;;15.23;46.22
74936;BME280;63501;55.570;37.488;2023-06-10T06:01:43;99579.53;;;15.24;45.52
74936;BME280;63501;55.570;37.488;2023-06-10T06:04:10;99586.28;;;15.26;45.36
74936;BME280;63501;55.570;37.488;2023-06-10T06:06:39;99581.41;;;15.30;45.25
74936;BME280;63501;55.570;37.488;2023-06-10T06:09:09;99581.84;;;15.29;44.93
74936;BME280;63501;55.570;37.488;2023-06-10T06:11:38;99587.69;;;15.38;45.20
74936;BME280;63501;55.570;37.488;2023-06-10T06:14:14;99578.13;;;15.39;44.71
74936;BME280;63501;55.570;37.488;2023-06-10T06:16:54;99583.63;;;15.43;44.90
74936;BME280;63501;55.570;37.488;2023-06-10T06:19:32;99593.03;;;15.52;43.93
74936;BME280;63501;55.570;37.488;2023-06-10T06:22:00;99582.47;;;15.40;44.73
74936;BME280;63501;55.570;37.488;2023-06-10T06:24:37;99583.88;;;15.52;44.07
74936;BME280;63501;55.570;37.488;2023-06-10T06:27:07;99582.50;;;15.67;44.04
74936;BME280;63501;55.570;37.488;2023-06-10T06:29:37;99585.16;;;15.74;44.29
74936;BME280;63501;55.570;37.488;2023-06-10T06:32:05;99584.13;;;15.88;43.86
74936;BME280;63501;55.570;37.488;2023-06-10T06:34:32;99585.31;;;16.10;43.51
74936;BME280;63501;55.570;37.488;2023-06-10T06:37:00;99595.22;;;16.15;43.70
74936;BME280;63501;55.570;37.488;2023-06-10T06:39:27;99600.59;;;16.26;42.79
74936;BME280;63501;55.570;37.488;2023-06-10T06:41:54;99604.75;;;16.18;43.03
74936;BME280;63501;55.570;37.488;2023-06-10T06:44:21;99607.41;;;16.01;43.49
74936;BME280;63501;55.570;37.488;2023-06-10T06:46:50;99611.34;;;16.04;43.42
74936;BME280;63501;55.570;37.488;2023-06-10T06:49:17;99604.44;;;16.35;42.55
74936;BME280;63501;55.570;37.488;2023-06-10T06:51:44;99605.09;;;16.63;42.47
74936;BME280;63501;55.570;37.488;2023-06-10T06:54:11;99597.78;;;16.73;41.89
74936;BME280;63501;55.570;37.488;2023-06-10T06:56:39;99599.44;;;16.66;40.92
74936;BME280;63501;55.570;37.488;2023-06-10T06:59:35;99594.44;;;16.78;41.29
74936;BME280;63501;55.570;37.488;2023-06-10T07:02:08;99601.72;;;17.11;40.55
74936;BME280;63501;55.570;37.488;2023-06-10T07:04:35;99597.63;;;17.36;40.40
74936;BME280;63501;55.570;37.488;2023-06-10T07:07:04;99602.19;;;17.46;40.27
74936;BME280;63501;55.570;37.488;2023-06-10T07:09:31;99616.50;;;17.48;40.23
74936;BME280;63501;55.570;37.488;2023-06-10T07:11:58;99613.81;;;17.61;40.01
74936;BME280;63501;55.570;37.488;2023-06-10T07:14:29;99607.00;;;17.45;39.85
74936;BME280;63501;55.570;37.488;2023-06-10T07:16:56;99615.19;;;17.16;39.71
74936;BME280;63501;55.570;37.488;2023-06-10T07:19:25;99623.66;;;17.13;40.15
74936;BME280;63501;55.570;37.488;2023-06-10T07:21:52;99624.84;;;17.32;40.21
74936;BME280;63501;55.570;37.488;2023-06-10T07:24:19;99615.50;;;17.38;39.32
74936;BME280;63501;55.570;37.488;2023-06-10T07:26:46;99624.09;;;17.11;39.26
74936;BME280;63501;55.570;37.488;2023-06-10T07:29:14;99616.06;;;17.13;39.33
74936;BME280;63501;55.570;37.488;2023-06-10T07:31:41;99616.63;;;17.25;39.20
74936;BME280;63501;55.570;37.488;2023-06-10T07:34:08;99618.47;;;17.31;39.09
74936;BME280;63501;55.570;37.488;2023-06-10T07:36:37;99638.44;;;17.13;39.75
74936;BME280;63501;55.570;37.488;2023-06-10T07:39:04;99635.78;;;16.86;39.18
74936;BME280;63501;55.570;37.488;2023-06-10T07:41:33;99638.22;;;16.61;39.94
74936;BME280;63501;55.570;37.488;2023-06-10T07:44:00;99639.28;;;16.47;39.72
74936;BME280;63501;55.570;37.488;2023-06-10T07:46:30;99644.03;;;16.50;40.18
74936;BME280;63501;55.570;37.488;2023-06-10T07:48:57;99640.22;;;16.84;40.11
74936;BME280;63501;55.570;37.488;2023-06-10T07:51:26;99632.34;;;17.18;39.20
74936;BME280;63501;55.570;37.488;2023-06-10T07:53:55;99642.25;;;17.39;38.59
74936;BME280;63501;55.570;37.488;2023-06-10T07:56:22;99641.50;;;17.55;38.54
74936;BME280;63501;55.570;37.488;2023-06-10T07:58:51;99634.72;;;17.73;37.60
74936;BME280;63501;55.570;37.488;2023-06-10T08:01:18;99641.97;;;17.70;37.67
74936;BME280;63501;55.570;37.488;2023-06-10T08:03:45;99646.56;;;17.60;37.55
74936;BME280;63501;55.570;37.488;2023-06-10T08:06:15;99652.00;;;17.51;38.16
74936;BME280;63501;55.570;37.488;2023-06-10T08:08:43;99649.28;;;17.28;37.96
74936;BME280;63501;55.570;37.488;2023-06-10T08:11:13;99658.25;;;16.99;37.50
74936;BME280;63501;55.570;37.488;2023-06-10T08:13:40;99662.63;;;16.80;38.05
74936;BME280;63501;55.570;37.488;2023-06-10T08:16:07;99667.56;;;16.73;37.70
74936;BME280;63501;55.570;37.488;2023-06-10T08:18:34;99673.06;;;16.76;38.61
74936;BME280;63501;55.570;37.488;2023-06-10T08:21:02;99664.78;;;16.92;38.10
74936;BME280;63501;55.570;37.488;2023-06-10T08:23:29;99667.06;;;16.98;37.73
74936;BME280;63501;55.570;37.488;2023-06-10T08:25:57;99667.44;;;17.00;37.18
74936;BME280;63501;55.570;37.488;2023-06-10T08:28:26;99657.41;;;17.02;37.85
74936;BME280;63501;55.570;37.488;2023-06-10T08:30:53;99657.25;;;17.29;37.48
74936;BME280;63501;55.570;37.488;2023-06-10T08:33:21;99657.91;;;17.53;36.82
74936;BME280;63501;55.570;37.488;2023-06-10T08:35:49;99652.53;;;17.62;36.79
74936;BME280;63501;55.570;37.488;2023-06-10T08:38:16;99669.13;;;17.69;36.73
74936;BME280;63501;55.570;37.488;2023-06-10T08:40:44;99657.16;;;17.69;36.59
74936;BME280;63501;55.570;37.488;2023-06-10T08:43:17;99665.50;;;17.73;37.28
74936;BME280;63501;55.570;37.488;2023-06-10T08:45:50;99659.81;;;17.76;37.13
74936;BME280;63501;55.570;37.488;2023-06-10T08:48:19;99671.16;;;17.69;37.04
74936;BME280;63501;55.570;37.488;2023-06-10T08:50:47;99669.72;;;17.61;37.50
74936;BME280;63501;55.570;37.488;2023-06-10T08:53:18;99679.66;;;17.45;37.51
74936;BME280;63501;55.570;37.488;2023-06-10T08:55:50;99678.22;;;17.37;37.20
74936;BME280;63501;55.570;37.488;2023-06-10T08:58:19;99672.91;;;17.43;37.21
74936;BME280;63501;55.570;37.488;2023-06-10T09:00:48;99668.50;;;17.62;37.23
74936;BME280;63501;55.570;37.488;2023-06-10T09:03:17;99671.00;;;17.76;36.56
74936;BME280;63501;55.570;37.488;2023-06-10T09:05:46;99673.63;;;17.83;36.04
74936;BME280;63501;55.570;37.488;2023-06-10T09:08:14;99676.03;;;18.63;35.59
74936;BME280;63501;55.570;37.488;2023-06-10T09:10:42;99680.88;;;18.79;34.82
74936;BME280;63501;55.570;37.488;2023-06-10T09:13:09;99675.47;;;19.42;34.39
74936;BME280;63501;55.570;37.488;2023-06-10T09:15:37;99670.47;;;19.75;33.94
74936;BME280;63501;55.570;37.488;2023-06-10T09:18:07;99675.75;;;20.59;32.52
74936;BME280;63501;55.570;37.488;2023-06-10T09:20:34;99672.94;;;20.59;33.38
74936;BME280;63501;55.570;37.488;2023-06-10T09:23:02;99668.16;;;20.47;33.04
74936;BME280;63501;55.570;37.488;2023-06-10T09:25:36;99666.13;;;21.04;32.14
74936;BME280;63501;55.570;37.488;2023-06-10T09:28:04;99656.31;;;21.92;30.74
74936;BME280;63501;55.570;37.488;2023-06-10T09:30:33;99660.84;;;23.22;28.85
74936;BME280;63501;55.570;37.488;2023-06-10T09:33:03;99657.66;;;24.23;27.91
74936;BME280;63501;55.570;37.488;2023-06-10T09:35:45;99652.75;;;24.95;26.51
74936;BME280;63501;55.570;37.488;2023-06-10T09:38:14;99650.16;;;25.66;25.73
74936;BME280;63501;55.570;37.488;2023-06-10T09:40:49;99647.13;;;26.40;25.03
74936;BME280;63501;55.570;37.488;2023-06-10T09:43:17;99646.69;;;26.87;24.30
74936;BME280;63501;55.570;37.488;2023-06-10T09:45:46;99636.28;;;27.25;23.82
74936;BME280;63501;55.570;37.488;2023-06-10T09:48:14;99641.16;;;27.51;23.64
74936;BME280;63501;55.570;37.488;2023-06-10T09:50:44;99635.25;;;27.86;23.28
74936;BME280;63501;55.570;37.488;2023-06-10T09:53:13;99646.41;;;27.95;22.85
74936;BME280;63501;55.570;37.488;2023-06-10T09:55:41;99639.00;;;28.09;22.42
74936;BME280;63501;55.570;37.488;2023-06-10T09:58:09;99647.69;;;27.31;22.88
74936;BME280;63501;55.570;37.488;2023-06-10T10:00:36;99640.09;;;27.48;23.08
74936;BME280;63501;55.570;37.488;2023-06-10T10:03:05;99639.91;;;27.89;22.34
74936;BME280;63501;55.570;37.488;2023-06-10T10:05:32;99668.19;;;26.53;23.49
74936;BME280;63501;55.570;37.488;2023-06-10T10:08:01;99668.91;;;24.80;24.65
74936;BME280;63501;55.570;37.488;2023-06-10T10:10:29;99683.84;;;23.39;25.86
74936;BME280;63501;55.570;37.488;2023-06-10T10:12:57;99679.28;;;22.31;26.46
74936;BME280;63501;55.570;37.488;2023-06-10T10:15:30;99680.59;;;23.31;25.68
74936;BME280;63501;55.570;37.488;2023-06-10T10:18:03;99670.94;;;24.79;24.47
74936;BME280;63501;55.570;37.488;2023-06-10T10:20:34;99656.22;;;26.08;23.53
74936;BME280;63501;55.570;37.488;2023-06-10T10:23:04;99648.09;;;27.18;22.95
74936;BME280;63501;55.570;37.488;2023-06-10T10:25:37;99656.59;;;27.76;21.99
74936;BME280;63501;55.570;37.488;2023-06-10T10:28:08;99646.28;;;28.21;21.74
74936;BME280;63501;55.570;37.488;2023-06-10T10:30:40;99659.97;;;27.74;21.96
74936;BME280;63501;55.570;37.488;2023-06-10T10:33:12;99676.97;;;26.00;23.64
74936;BME280;63501;55.570;37.488;2023-06-10T10:35:41;99682.66;;;24.48;24.42
74936;BME280;63501;55.570;37.488;2023-06-10T10:38:11;99694.56;;;22.98;25.28
74936;BME280;63501;55.570;37.488;2023-06-10T10:40:39;99693.38;;;21.91;26.33
74936;BME280;63501;55.570;37.488;2023-06-10T10:43:08;99694.50;;;21.19;26.41
74936;BME280;63501;55.570;37.488;2023-06-10T10:45:38;99702.16;;;20.96;27.69
74936;BME280;63501;55.570;37.488;2023-06-10T10:48:08;99704.66;;;20.94;26.79
74936;BME280;63501;55.570;37.488;2023-06-10T10:50:38;99694.94;;;21.92;26.03
74936;BME280;63501;55.570;37.488;2023-06-10T10:53:06;99679.47;;;23.29;25.33
74936;BME280;63501;55.570;37.488;2023-06-10T10:55:34;99678.19;;;24.57;24.33
74936;BME280;63501;55.570;37.488;2023-06-10T10:58:04;99669.19;;;25.80;23.75
74936;BME280;63501;55.570;37.488;2023-06-10T11:00:33;99668.19;;;26.53;23.31
74936;BME280;63501;55.570;37.488;2023-06-10T11:03:05;99675.75;;;25.56;23.70
74936;BME280;63501;55.570;37.488;2023-06-10T11:05:38;99685.31;;;24.19;24.11
74936;BME280;63501;55.570;37.488;2023-06-10T11:08:05;99680.53;;;23.59;24.72
74936;BME280;63501;55.570;37.488;2023-06-10T11:10:36;99674.09;;;24.58;23.66
74936;BME280;63501;55.570;37.488;2023-06-10T11:13:08;99666.53;;;25.91;23.26
74936;BME280;63501;55.570;37.488;2023-06-10T11:15:40;99655.06;;;26.35;22.81
74936;BME280;63501;55.570;37.488;2023-06-10T11:18:15;99673.31;;;25.20;23.50
74936;BME280;63501;55.570;37.488;2023-06-10T11:20:51;99683.16;;;23.81;24.45
74936;BME280;63501;55.570;37.488;2023-06-10T11:23:34;99697.00;;;22.41;25.76
74936;BME280;63501;55.570;37.488;2023-06-10T11:26:13;99695.38;;;22.22;25.83
74936;BME280;63501;55.570;37.488;2023-06-10T11:28:41;99688.66;;;23.75;24.31
74936;BME280;63501;55.570;37.488;2023-06-10T11:31:18;99694.66;;;25.21;23.74
74936;BME280;63501;55.570;37.488;2023-06-10T11:33:47;99688.13;;;26.24;22.50
74936;BME280;63501;55.570;37.488;2023-06-10T11:36:14;99692.44;;;26.95;21.92
74936;BME280;63501;55.570;37.488;2023-06-10T11:38:42;99677.53;;;27.00;21.78
74936;BME280;63501;55.570;37.488;2023-06-10T11:41:11;99697.09;;;26.02;21.87
74936;BME280;63501;55.570;37.488;2023-06-10T11:43:40;99685.97;;;25.69;22.74
74936;BME280;63501;55.570;37.488;2023-06-10T11:46:09;99680.22;;;26.28;21.80
74936;BME280;63501;55.570;37.488;2023-06-10T11:48:37;99679.25;;;27.12;22.08
74936;BME280;63501;55.570;37.488;2023-06-10T11:51:06;99673.22;;;27.57;21.52
74936;BME280;63501;55.570;37.488;2023-06-10T11:53:35;99663.69;;;27.91;21.22
74936;BME280;63501;55.570;37.488;2023-06-10T11:56:02;99682.06;;;27.96;21.30
74936;BME280;63501;55.570;37.488;2023-06-10T11:58:31;99676.22;;;28.11;20.73
74936;BME280;63501;55.570;37.488;2023-06-10T12:01:00;99672.88;;;28.55;20.64
74936;BME280;63501;55.570;37.488;2023-06-10T12:03:36;99673.25;;;28.80;20.50
74936;BME280;63501;55.570;37.488;2023-06-10T12:06:05;99675.94;;;29.11;20.20
74936;BME280;63501;55.570;37.488;2023-06-10T12:08:33;99675.41;;;29.07;20.12
74936;BME280;63501;55.570;37.488;2023-06-10T12:11:08;99683.41;;;28.43;20.30
74936;BME280;63501;55.570;37.488;2023-06-10T12:13:45;99681.22;;;27.58;20.43
74936;BME280;63501;55.570;37.488;2023-06-10T12:16:15;99683.69;;;27.45;20.24
74936;BME280;63501;55.570;37.488;2023-06-10T12:18:44;99678.78;;;26.73;20.65
74936;BME280;63501;55.570;37.488;2023-06-10T12:21:19;99674.34;;;27.13;20.42
74936;BME280;63501;55.570;37.488;2023-06-10T12:24:04;99669.56;;;27.51;20.00
74936;BME280;63501;55.570;37.488;2023-06-10T12:26:39;99660.16;;;28.02;19.32
74936;BME280;63501;55.570;37.488;2023-06-10T12:29:17;99668.41;;;28.43;19.36
74936;BME280;63501;55.570;37.488;2023-06-10T12:32:03;99673.97;;;28.20;19.33
74936;BME280;63501;55.570;37.488;2023-06-10T12:34:36;99693.19;;;26.34;20.17
74936;BME280;63501;55.570;37.488;2023-06-10T12:37:12;99697.44;;;24.43;21.94
74936;BME280;63501;55.570;37.488;2023-06-10T12:39:41;99705.84;;;23.35;22.25
74936;BME280;63501;55.570;37.488;2023-06-10T12:42:09;99711.91;;;22.69;22.87
74936;BME280;63501;55.570;37.488;2023-06-10T12:44:39;99712.88;;;22.16;23.59
74936;BME280;63501;55.570;37.488;2023-06-10T12:47:10;99713.56;;;21.99;23.70
74936;BME280;63501;55.570;37.488;2023-06-10T12:49:38;99717.59;;;21.88;24.37
74936;BME280;63501;55.570;37.488;2023-06-10T12:52:07;99716.97;;;21.84;24.89
74936;BME280;63501;55.570;37.488;2023-06-10T12:54:35;99718.91;;;21.97;24.53
74936;BME280;63501;55.570;37.488;2023-06-10T12:57:02;99715.13;;;22.31;23.42
74936;BME280;63501;55.570;37.488;2023-06-10T12:59:31;99712.78;;;22.29;24.10